Time;durP1;ratioP1;P1;durP2;ratioP2;P2;SDS_P1;SDS_P2;PMS_P1;PMS_P2;Temp;Humidity;BMP_temperature;BMP_pressure;BME280_temperature;BME280_humidity;BME280_pressure;Samples;Min_cycle;Max_cycle;Signal;HPM_P1;HPM_P2
2022/06/29 00:00:31;;;;;;;3.90;3.40;;;;;;;19.58;77.11;99100.59;105310;1271;76089;-25
2022/06/29 00:02:58;;;;;;;5.30;4.00;;;;;;;19.96;77.02;99105.02;105220;1271;74468;-25
2022/06/29 00:05:26;;;;;;;5.80;3.90;;;;;;;20.39;75.80;99104.03;104816;1271;61147;-25
2022/06/29 00:07:54;;;;;;;7.70;4.40;;;;;;;20.38;74.92;99107.89;104926;1269;62267;-24
2022/06/29 00:10:22;;;;;;;6.20;4.00;;;;;;;20.17;75.38;99109.34;105095;1271;75833;-25
2022/06/29 00:12:49;;;;;;;4.90;4.30;;;;;;;19.95;75.69;99113.05;105221;1271;75818;-23
2022/06/29 00:15:19;;;;;;;4.20;3.80;;;;;;;19.75;76.28;99115.48;105325;1270;74447;-21
2022/06/29 00:17:49;;;;;;;5.30;3.60;;;;;;;19.60;76.80;99120.64;105161;1271;61094;-26
2022/06/29 00:20:17;;;;;;;3.60;3.30;;;;;;;20.10;76.34;99120.75;105311;1271;61266;-25
2022/06/29 00:22:53;;;;;;;5.80;3.90;;;;;;;20.67;73.95;99123.59;105024;1271;75406;-25
2022/06/29 00:25:23;;;;;;;4.30;3.70;;;;;;;20.72;72.79;99120.27;105102;1271;75846;-25
2022/06/29 00:27:50;;;;;;;7.30;4.10;;;;;;;20.55;72.90;99121.69;105088;1271;74373;-25
2022/06/29 00:30:18;;;;;;;4.80;4.00;;;;;;;20.32;73.27;99118.05;104813;1271;61739;-25
2022/06/29 00:32:47;;;;;;;4.60;4.10;;;;;;;20.05;73.86;99110.45;104935;1271;61127;-24
2022/06/29 00:35:15;;;;;;;4.90;3.60;;;;;;;19.86;74.58;99108.98;105219;1271;75339;-25
2022/06/29 00:37:44;;;;;;;6.30;3.50;;;;;;;20.28;74.70;99108.52;105283;1270;75444;-25
2022/06/29 00:40:12;;;;;;;5.80;4.50;;;;;;;20.78;72.25;99106.78;104979;1271;74503;-25
2022/06/29 00:42:40;;;;;;;6.80;4.30;;;;;;;20.76;72.44;99100.30;104913;1271;61064;-25
2022/06/29 00:45:10;;;;;;;6.10;4.70;;;;;;;20.50;72.56;99099.48;104941;1271;62016;-25
2022/06/29 00:47:39;;;;;;;5.10;4.40;;;;;;;20.23;73.37;99096.60;105008;1271;75670;-25
2022/06/29 00:50:07;;;;;;;4.50;4.00;;;;;;;19.94;73.90;99091.42;104658;1271;75997;-25
2022/06/29 00:52:36;;;;;;;3.80;3.40;;;;;;;19.67;74.56;99086.31;105106;1271;74321;-25
2022/06/29 00:55:10;;;;;;;4.70;3.20;;;;;;;20.02;74.64;99089.20;105096;1271;60975;-25
2022/06/29 00:57:44;;;;;;;5.20;4.20;;;;;;;20.51;73.05;99087.04;105118;1271;61201;-25
2022/06/29 01:00:13;;;;;;;6.20;4.00;;;;;;;20.55;72.91;99087.11;104961;1271;74337;-25
2022/06/29 01:02:40;;;;;;;4.90;3.90;;;;;;;20.38;72.71;99085.29;104861;1271;74738;-25
2022/06/29 01:05:09;;;;;;;5.10;4.10;;;;;;;20.11;72.21;99086.13;105011;1271;74518;-25
2022/06/29 01:07:38;;;;;;;5.40;3.90;;;;;;;19.79;73.02;99086.47;105168;1271;61929;-24
2022/06/29 01:10:09;;;;;;;4.10;3.00;;;;;;;19.52;74.75;99085.70;104996;1271;61108;-25
2022/06/29 01:12:37;;;;;;;5.50;3.40;;;;;;;19.83;74.67;99081.08;105109;1271;76475;-25
2022/06/29 01:15:05;;;;;;;8.00;3.60;;;;;;;20.19;73.65;99083.05;104962;1271;75747;-25
2022/06/29 01:17:33;;;;;;;3.80;3.50;;;;;;;20.03;73.49;99081.20;104952;1271;73326;-25
2022/06/29 01:20:00;;;;;;;5.10;3.80;;;;;;;19.74;74.23;99083.73;104820;1271;61908;-24
2022/06/29 01:22:29;;;;;;;4.40;4.00;;;;;;;19.47;74.51;99086.09;105182;1271;61057;-24
2022/06/29 01:25:02;;;;;;;4.60;4.20;;;;;;;19.19;75.44;99085.45;105294;1271;76405;-25
2022/06/29 01:27:31;;;;;;;4.90;3.20;;;;;;;18.97;76.69;99084.98;105316;1270;74101;-25
2022/06/29 01:30:00;;;;;;;4.60;3.50;;;;;;;19.35;76.58;99087.79;105272;1270;74327;-25
2022/06/29 01:32:27;;;;;;;5.00;3.80;;;;;;;19.79;74.56;99087.96;105165;1271;62379;-25
2022/06/29 01:34:56;;;;;;;4.20;3.70;;;;;;;19.78;74.04;99083.69;105132;1271;61906;-25
2022/06/29 01:37:23;;;;;;;4.40;3.50;;;;;;;19.60;73.51;99080.04;104956;1271;75662;-25
2022/06/29 01:39:51;;;;;;;6.00;3.80;;;;;;;19.25;74.21;99083.42;104947;1271;76997;-25
2022/06/29 01:42:18;;;;;;;4.80;4.10;;;;;;;18.86;74.73;99080.83;104938;1271;74356;-25
2022/06/29 01:44:46;;;;;;;5.20;3.10;;;;;;;18.64;75.79;99084.52;104953;1271;62649;-25
2022/06/29 01:47:13;;;;;;;4.00;3.60;;;;;;;19.05;76.39;99085.34;105030;1269;61809;-25
2022/06/29 01:49:41;;;;;;;4.80;3.80;;;;;;;19.52;75.06;99085.14;105254;1271;74523;-25
2022/06/29 01:52:11;;;;;;;7.40;4.60;;;;;;;19.53;74.69;99078.20;104822;1271;76005;-25
2022/06/29 01:54:39;;;;;;;6.40;4.80;;;;;;;19.34;74.75;99077.89;104931;1271;73228;-25
2022/06/29 01:57:06;;;;;;;5.30;4.40;;;;;;;19.09;75.34;99077.27;104854;1271;61146;-25
2022/06/29 01:59:34;;;;;;;5.60;4.90;;;;;;;18.84;75.98;99081.72;104913;1271;61311;-25
2022/06/29 02:02:01;;;;;;;3.60;3.20;;;;;;;18.67;76.59;99087.69;104956;1271;74931;-25
2022/06/29 02:04:29;;;;;;;5.00;4.00;;;;;;;19.13;76.68;99085.23;104940;1270;75765;-25
2022/06/29 02:06:56;;;;;;;4.70;4.20;;;;;;;19.72;74.33;99088.77;104956;1271;74229;-25
2022/06/29 02:09:23;;;;;;;4.20;3.80;;;;;;;19.78;72.95;99088.61;104952;1271;61233;-25
2022/06/29 02:11:52;;;;;;;5.10;4.50;;;;;;;19.53;72.94;99090.12;105014;1271;61188;-25
2022/06/29 02:14:20;;;;;;;5.20;4.30;;;;;;;19.23;74.01;99092.70;104998;1271;75479;-25
2022/06/29 02:16:48;;;;;;;5.20;4.70;;;;;;;18.98;75.07;99091.45;105035;1271;76127;-25
2022/06/29 02:19:16;;;;;;;4.50;3.60;;;;;;;18.79;75.20;99095.08;104919;1271;73817;-25
2022/06/29 02:21:44;;;;;;;3.90;3.40;;;;;;;19.18;75.21;99089.98;105137;1271;63778;-25
2022/06/29 02:24:12;;;;;;;4.00;3.50;;;;;;;19.60;73.18;99087.07;104793;1271;61945;-25
2022/06/29 02:26:40;;;;;;;7.50;4.20;;;;;;;19.49;73.36;99090.10;104956;1270;75699;-25
2022/06/29 02:29:07;;;;;;;5.40;4.70;;;;;;;19.34;74.43;99092.57;105023;1270;76300;-25
2022/06/29 02:37:08;;;;;;;5.40;3.90;;;;;;;19.46;74.34;99089.66;105077;1271;61072;-23
2022/06/29 02:39:35;;;;;;;4.50;4.10;;;;;;;20.07;73.31;99092.86;104953;1271;75664;-24
2022/06/29 02:42:04;;;;;;;5.30;4.80;;;;;;;20.57;71.46;99090.01;104693;1271;76002;-25
2022/06/29 02:44:32;;;;;;;5.50;4.70;;;;;;;20.72;71.24;99093.70;104788;1271;74317;-25
2022/06/29 02:47:01;;;;;;;5.60;4.60;;;;;;;20.80;70.98;99096.46;104956;1271;61055;-25
2022/06/29 02:49:28;;;;;;;6.00;5.50;;;;;;;20.89;70.81;99093.70;104983;1271;62028;-25
2022/06/29 02:51:56;;;;;;;6.50;5.60;;;;;;;20.97;70.21;99096.12;104983;1271;76882;-25
2022/06/29 02:54:23;;;;;;;5.70;3.90;;;;;;;21.03;70.04;99102.23;105111;1270;76038;-25
2022/06/29 02:56:51;;;;;;;4.60;3.80;;;;;;;21.69;69.32;99105.09;104932;1271;74338;-25
2022/06/29 02:59:18;;;;;;;5.30;4.10;;;;;;;22.47;67.01;99106.16;104821;1271;61963;-25
2022/06/29 03:01:47;;;;;;;6.90;4.90;;;;;;;22.73;65.65;99102.69;105000;1271;62053;-25
2022/06/29 03:04:14;;;;;;;5.70;4.80;;;;;;;22.75;65.22;99097.30;104678;1274;74573;-25
2022/06/29 03:06:42;;;;;;;6.60;5.00;;;;;;;22.71;65.25;99098.77;104882;1271;75959;-25
2022/06/29 03:09:10;;;;;;;5.90;5.00;;;;;;;22.70;65.15;99098.78;104927;1271;74295;-25
2022/06/29 03:11:37;;;;;;;11.10;6.30;;;;;;;22.68;64.95;99106.08;105197;1270;61442;-26
2022/06/29 03:14:04;;;;;;;9.90;5.90;;;;;;;22.69;64.86;99112.94;105158;1271;61759;-25
2022/06/29 03:16:35;;;;;;;5.30;4.20;;;;;;;22.73;64.97;99116.05;105360;1271;75034;-25
2022/06/29 03:19:03;;;;;;;5.00;4.20;;;;;;;23.45;64.26;99113.48;105289;1271;76526;-25
2022/06/29 03:21:31;;;;;;;5.30;4.80;;;;;;;24.22;61.95;99112.08;105310;1271;74830;-24
2022/06/29 03:23:58;;;;;;;6.20;5.10;;;;;;;24.51;60.94;99109.86;105032;1271;61189;-25
2022/06/29 03:26:26;;;;;;;6.00;5.40;;;;;;;24.59;60.55;99110.75;105069;1271;61049;-25
2022/06/29 03:28:55;;;;;;;6.80;6.10;;;;;;;24.41;60.30;99109.96;105007;1271;75554;-25
2022/06/29 03:31:23;;;;;;;6.50;5.90;;;;;;;24.26;61.16;99106.54;104965;1271;75822;-25
2022/06/29 03:33:51;;;;;;;7.60;6.50;;;;;;;24.08;61.76;99100.98;105052;1271;74416;-23
2022/06/29 03:36:18;;;;;;;5.90;5.40;;;;;;;23.89;62.61;99099.52;104992;1270;61092;-23
2022/06/29 03:38:46;;;;;;;7.90;5.80;;;;;;;23.93;62.91;99091.16;104951;1271;61136;-23
2022/06/29 03:41:14;;;;;;;7.70;5.90;;;;;;;24.09;62.57;99093.94;104985;1271;75701;-23
2022/06/29 03:43:41;;;;;;;6.70;6.00;;;;;;;24.22;62.19;99101.41;104962;1269;75798;-24
2022/06/29 03:46:09;;;;;;;8.90;6.10;;;;;;;24.31;61.77;99101.64;105100;1272;74254;-24
2022/06/29 03:48:37;;;;;;;7.50;6.10;;;;;;;24.39;61.53;99105.35;104963;1271;61032;-24
2022/06/29 03:51:05;;;;;;;5.10;4.60;;;;;;;24.56;61.96;99100.98;105016;1270;61157;-24
2022/06/29 03:53:32;;;;;;;5.20;4.60;;;;;;;25.39;61.54;99094.84;104959;1271;75420;-24
2022/06/29 03:56:00;;;;;;;6.40;5.80;;;;;;;26.29;59.04;99095.86;104973;1271;75397;-24
2022/06/29 03:58:28;;;;;;;8.90;5.80;;;;;;;26.46;57.85;99092.55;104778;1271;74434;-24
2022/06/29 04:00:56;;;;;;;7.40;6.20;;;;;;;26.46;57.37;99090.85;105210;1271;61035;-24
2022/06/29 04:03:23;;;;;;;6.60;6.10;;;;;;;26.38;57.02;99093.25;104997;1271;62098;-24
2022/06/29 04:05:50;;;;;;;7.30;5.90;;;;;;;26.33;57.52;99093.02;104958;1271;75722;-24
2022/06/29 04:08:18;;;;;;;7.70;5.20;;;;;;;26.30;57.61;99091.23;104902;1271;75999;-24
2022/06/29 04:10:45;;;;;;;6.70;6.10;;;;;;;26.18;57.54;99092.33;104923;1271;74460;-24
2022/06/29 04:13:13;;;;;;;6.30;5.70;;;;;;;26.05;57.06;99089.86;104976;1271;61134;-24
2022/06/29 04:15:41;;;;;;;7.80;6.50;;;;;;;25.91;57.11;99085.08;104863;1271;62157;-25
2022/06/29 04:18:10;;;;;;;27.80;7.30;;;;;;;25.79;58.09;99085.23;104771;1271;76404;-24
2022/06/29 04:23:23;;;;;;;8.20;6.30;;;;;;;25.44;59.64;99077.79;105122;1274;74226;-24
2022/06/29 04:25:51;;;;;;;6.90;6.30;;;;;;;25.50;60.14;99080.48;104932;1271;61126;-24
2022/06/29 04:28:19;;;;;;;10.60;8.00;;;;;;;25.69;59.59;99080.05;104952;1270;61131;-24
2022/06/29 04:30:47;;;;;;;7.20;6.50;;;;;;;25.79;59.06;99079.48;104920;1271;75356;-24
2022/06/29 04:33:14;;;;;;;7.20;6.50;;;;;;;25.93;58.92;99079.31;104989;1271;75875;-24
2022/06/29 04:35:41;;;;;;;8.30;6.90;;;;;;;26.15;57.84;99079.54;104968;1269;74362;-24
2022/06/29 04:38:09;;;;;;;7.40;6.60;;;;;;;26.46;56.86;99076.59;104907;1271;61061;-24
2022/06/29 04:40:37;;;;;;;9.40;7.30;;;;;;;26.66;57.00;99073.72;105018;1271;61064;-24
2022/06/29 04:43:04;;;;;;;7.20;6.50;;;;;;;26.65;56.47;99066.95;104931;1271;76119;-24
2022/06/29 04:48:22;;;;;;;8.60;7.50;;;;;;;27.01;56.65;99063.90;105164;1271;74134;-24
2022/06/29 04:50:49;;;;;;;7.80;7.00;;;;;;;27.14;56.62;99066.11;104974;1271;61871;-23
2022/06/29 04:53:16;;;;;;;11.50;7.10;;;;;;;27.21;55.92;99065.69;104932;1270;61756;-23
2022/06/29 04:55:44;;;;;;;9.60;6.90;;;;;;;27.10;56.02;99064.80;104917;1271;75346;-24
2022/06/29 04:58:11;;;;;;;12.30;7.00;;;;;;;27.04;56.36;99067.23;104866;1271;75906;-23
2022/06/29 05:00:39;;;;;;;7.20;6.20;;;;;;;27.15;54.57;99063.20;104885;1271;75173;-23
2022/06/29 05:03:06;;;;;;;9.50;6.40;;;;;;;27.30;52.81;99062.41;104948;1271;61120;-23
2022/06/29 05:05:33;;;;;;;16.70;6.10;;;;;;;27.57;51.94;99056.98;104960;1271;61249;-24
2022/06/29 05:08:01;;;;;;;33.10;12.60;;;;;;;27.81;49.54;99056.80;104944;1271;75455;-24
2022/06/29 05:10:30;;;;;;;26.80;17.30;;;;;;;28.14;49.49;99061.17;104946;1271;75979;-23
2022/06/29 05:12:58;;;;;;;16.30;8.80;;;;;;;28.33;48.09;99064.49;104961;1270;74383;-23
2022/06/29 05:15:25;;;;;;;12.10;6.90;;;;;;;28.57;49.05;99063.65;105139;1271;62117;-23
2022/06/29 05:17:53;;;;;;;15.30;6.20;;;;;;;28.04;48.57;99063.65;105344;1270;61134;-23
2022/06/29 05:20:21;;;;;;;9.10;6.60;;;;;;;28.41;49.14;99059.16;105292;1271;75548;-24
2022/06/29 05:22:49;;;;;;;6.60;5.30;;;;;;;28.66;49.59;99056.19;105146;1271;75855;-24
2022/06/29 05:25:16;;;;;;;10.80;7.60;;;;;;;28.92;48.31;99048.87;105313;1271;74430;-23
2022/06/29 05:27:44;;;;;;;18.90;11.60;;;;;;;29.00;47.26;99049.27;104939;1269;61018;-24
2022/06/29 05:30:14;;;;;;;14.00;8.80;;;;;;;29.05;45.81;99048.58;104947;1271;61144;-23
2022/06/29 05:32:43;;;;;;;10.80;8.20;;;;;;;29.35;46.93;99051.50;104986;1271;73965;-23
2022/06/29 05:35:11;;;;;;;16.50;13.00;;;;;;;29.47;45.56;99054.38;104932;1271;75482;-24
2022/06/29 05:37:42;;;;;;;14.70;9.30;;;;;;;29.48;46.08;99053.10;104815;1271;74176;-24
2022/06/29 05:40:10;;;;;;;8.40;5.80;;;;;;;29.28;46.41;99055.42;104922;1271;61978;-23
2022/06/29 05:42:37;;;;;;;14.60;10.70;;;;;;;28.93;46.53;99058.11;104938;1271;61219;-23
2022/06/29 05:45:07;;;;;;;6.50;5.90;;;;;;;28.42;47.21;99062.73;104894;1271;75498;-23
2022/06/29 05:47:37;;;;;;;6.40;5.50;;;;;;;28.55;47.78;99057.89;104798;1271;74794;-24
2022/06/29 05:50:05;;;;;;;9.90;5.90;;;;;;;28.38;48.01;99056.02;104941;1271;73236;-23
2022/06/29 05:52:33;;;;;;;10.70;5.40;;;;;;;28.70;48.59;99050.84;104785;1271;61992;-23
2022/06/29 05:55:01;;;;;;;33.30;6.40;;;;;;;29.29;48.04;99047.95;104978;1271;61366;-23
2022/06/29 05:57:30;;;;;;;10.70;6.80;;;;;;;29.72;46.91;99047.77;104971;1271;74516;-23
2022/06/29 05:59:57;;;;;;;13.60;5.30;;;;;;;29.89;45.97;99048.31;104943;1271;77578;-23
2022/06/29 06:02:25;;;;;;;22.20;5.30;;;;;;;30.03;45.68;99048.09;104896;1271;74315;-23
2022/06/29 06:04:54;;;;;;;10.10;5.80;;;;;;;30.27;46.34;99042.03;104931;1271;61138;-23
2022/06/29 06:07:22;;;;;;;9.30;4.70;;;;;;;30.43;45.77;99048.23;104802;1271;62525;-23
2022/06/29 06:09:49;;;;;;;5.70;4.30;;;;;;;30.42;45.28;99045.01;104946;1271;75337;-23
2022/06/29 06:12:17;;;;;;;6.30;4.60;;;;;;;30.43;44.76;99042.06;104806;1271;75793;-23
2022/06/29 06:14:44;;;;;;;7.00;4.90;;;;;;;30.64;44.83;99040.50;104796;1274;74395;-24
2022/06/29 06:17:12;;;;;;;7.50;4.90;;;;;;;30.75;44.19;99039.56;104943;1271;61954;-23
2022/06/29 06:19:40;;;;;;;5.40;4.90;;;;;;;30.77;44.82;99037.01;105237;1271;61013;-23
2022/06/29 06:22:09;;;;;;;6.00;4.90;;;;;;;30.75;44.56;99036.29;104980;1271;75358;-23
2022/06/29 06:24:36;;;;;;;6.10;4.30;;;;;;;30.80;45.03;99034.06;104967;1271;75895;-23
2022/06/29 06:27:04;;;;;;;6.30;5.50;;;;;;;31.01;44.84;99034.99;104937;1271;74197;-23
2022/06/29 06:29:32;;;;;;;9.60;7.40;;;;;;;30.30;44.04;99031.38;104866;1271;62070;-23
2022/06/29 06:32:01;;;;;;;7.50;5.80;;;;;;;30.72;44.67;99031.58;105001;1270;61981;-23
2022/06/29 06:34:28;;;;;;;12.10;10.80;;;;;;;31.08;43.01;99030.71;104834;1271;75497;-23
2022/06/29 06:36:56;;;;;;;6.10;5.50;;;;;;;31.36;44.20;99024.27;104967;1271;75460;-23
2022/06/29 06:39:23;;;;;;;5.60;5.10;;;;;;;31.57;43.77;99024.53;104934;1271;74457;-23
2022/06/29 06:41:51;;;;;;;11.20;5.00;;;;;;;31.44;42.78;99023.89;104758;1272;61032;-23
2022/06/29 06:44:18;;;;;;;4.80;4.40;;;;;;;31.70;42.70;99022.10;104637;1271;61785;-23
2022/06/29 06:46:48;;;;;;;8.30;4.60;;;;;;;31.78;42.65;99022.67;104950;1271;74626;-23
2022/06/29 06:49:23;;;;;;;5.60;5.00;;;;;;;31.66;43.09;99020.73;104943;1271;75929;-23
2022/06/29 06:51:52;;;;;;;9.50;4.50;;;;;;;31.45;43.50;99023.52;104902;1271;73965;-24
2022/06/29 06:54:20;;;;;;;5.10;4.60;;;;;;;31.57;43.21;99022.38;104920;1271;61108;-23
2022/06/29 06:56:48;;;;;;;5.50;5.00;;;;;;;31.73;43.09;99025.18;104913;1271;61041;-23
2022/06/29 06:59:15;;;;;;;4.90;4.40;;;;;;;31.72;42.13;99023.41;104963;1271;75426;-23
2022/06/29 07:01:42;;;;;;;7.60;5.20;;;;;;;31.83;42.54;99021.60;104940;1271;75573;-25
2022/06/29 07:04:16;;;;;;;7.40;4.90;;;;;;;31.88;42.49;99021.84;104943;1271;73468;-23
2022/06/29 07:06:44;;;;;;;5.40;4.90;;;;;;;31.97;42.24;99023.02;104723;1274;61141;-23
2022/06/29 07:09:12;;;;;;;5.70;5.20;;;;;;;31.88;41.93;99022.09;104951;1271;63558;-23
2022/06/29 07:11:39;;;;;;;5.10;4.70;;;;;;;31.14;42.55;99023.98;104850;1272;75671;-23
2022/06/29 07:14:07;;;;;;;6.30;5.60;;;;;;;31.12;42.48;99022.46;104698;1270;75140;-23
2022/06/29 07:16:35;;;;;;;5.80;5.20;;;;;;;30.73;42.77;99020.42;104917;1271;74282;-23
2022/06/29 07:19:03;;;;;;;5.60;5.00;;;;;;;31.31;43.10;99018.73;105155;1271;62723;-23
2022/06/29 07:21:30;;;;;;;7.90;4.70;;;;;;;31.70;42.38;99015.48;104943;1271;61130;-23
2022/06/29 07:23:59;;;;;;;11.70;8.80;;;;;;;31.74;42.33;99014.09;104998;1271;75408;-23
2022/06/29 07:26:26;;;;;;;9.80;6.50;;;;;;;31.95;41.52;99012.30;105109;1271;76076;-23
2022/06/29 07:28:54;;;;;;;8.40;6.40;;;;;;;32.27;41.45;99015.19;104938;1271;74121;-23
2022/06/29 07:31:22;;;;;;;5.70;5.20;;;;;;;32.68;40.27;99016.34;104912;1271;62154;-23
2022/06/29 07:33:49;;;;;;;5.50;4.90;;;;;;;32.82;38.16;99010.72;104964;1272;61098;-24
2022/06/29 07:36:18;;;;;;;6.70;4.80;;;;;;;32.94;37.54;99016.04;104805;1271;74580;-23
2022/06/29 07:38:45;;;;;;;4.80;4.40;;;;;;;33.21;38.32;99009.56;104958;1271;76037;-23
2022/06/29 07:41:13;;;;;;;6.40;4.90;;;;;;;33.03;38.01;99012.95;105019;1271;74290;-23
2022/06/29 07:43:41;;;;;;;5.50;5.10;;;;;;;33.01;38.10;99012.55;104988;1271;61484;-23
2022/06/29 07:46:09;;;;;;;5.90;5.10;;;;;;;32.96;38.62;99013.12;104917;1271;61104;-23
2022/06/29 07:48:37;;;;;;;7.20;5.40;;;;;;;33.44;38.91;99008.83;104950;1271;75553;-23
2022/06/29 07:51:04;;;;;;;6.00;4.60;;;;;;;33.64;35.48;99005.70;104944;1271;76048;-23
2022/06/29 07:53:32;;;;;;;6.70;4.50;;;;;;;33.84;35.48;99010.13;105200;1271;74346;-23
2022/06/29 07:55:59;;;;;;;4.80;4.40;;;;;;;33.82;33.55;99007.16;104898;1271;61157;-23
2022/06/29 07:58:27;;;;;;;5.80;4.50;;;;;;;34.06;34.63;99009.59;104937;1271;61455;-23
2022/06/29 08:00:54;;;;;;;7.30;6.30;;;;;;;34.15;32.70;99009.36;104924;1271;75710;-24
2022/06/29 08:03:22;;;;;;;7.50;6.70;;;;;;;34.29;32.94;99012.70;104815;1271;74702;-23
2022/06/29 08:05:51;;;;;;;5.70;5.10;;;;;;;34.58;34.20;99016.14;104827;1271;74303;-24
2022/06/29 08:08:20;;;;;;;5.90;5.40;;;;;;;34.77;34.75;99008.97;104768;1271;61124;-23
2022/06/29 08:10:48;;;;;;;6.20;5.10;;;;;;;34.08;33.53;99007.27;104896;1271;61356;-23
2022/06/29 08:13:17;;;;;;;5.00;4.60;;;;;;;34.17;34.23;99009.13;105062;1272;74308;-23
2022/06/29 08:15:45;;;;;;;5.00;4.60;;;;;;;34.37;33.12;99007.28;104844;1271;74958;-24
2022/06/29 08:18:14;;;;;;;5.30;4.80;;;;;;;34.36;33.15;99008.80;104730;1271;74377;-23
2022/06/29 08:20:43;;;;;;;10.10;4.90;;;;;;;34.13;35.24;99008.56;104754;1271;61176;-24
2022/06/29 08:23:11;;;;;;;7.00;5.50;;;;;;;33.72;36.61;99007.76;104692;1271;61003;-23
2022/06/29 08:25:38;;;;;;;5.30;4.70;;;;;;;33.43;37.34;99005.92;104927;1271;75479;-24
2022/06/29 08:28:19;;;;;;;5.70;5.00;;;;;;;33.24;39.07;99001.52;104825;1271;76111;-24
2022/06/29 08:30:46;;;;;;;5.90;5.30;;;;;;;33.17;38.24;98999.98;104926;1273;74208;-23
2022/06/29 08:33:14;;;;;;;6.50;5.90;;;;;;;33.29;37.05;99000.09;104848;1274;62211;-24
2022/06/29 08:35:44;;;;;;;6.40;5.00;;;;;;;33.41;36.04;99001.78;104799;1271;61142;-24
2022/06/29 08:38:11;;;;;;;5.80;5.30;;;;;;;33.42;36.86;99004.80;104909;1271;76738;-24
2022/06/29 08:40:46;;;;;;;6.60;5.10;;;;;;;33.29;37.48;99003.12;104868;1271;75874;-24
2022/06/29 08:43:15;;;;;;;10.00;5.20;;;;;;;33.08;37.04;99005.14;104772;1271;74448;-24
2022/06/29 08:45:47;;;;;;;5.50;5.00;;;;;;;33.04;37.67;99005.59;104807;1272;62125;-24
2022/06/29 08:48:16;;;;;;;7.60;4.40;;;;;;;32.85;36.87;99005.91;104818;1271;61153;-24
2022/06/29 08:50:50;;;;;;;5.00;4.30;;;;;;;32.63;37.14;99004.39;104811;1271;74369;-24
2022/06/29 08:53:18;;;;;;;5.00;4.30;;;;;;;32.43;37.19;99002.69;104678;1272;75928;-24
2022/06/29 08:55:52;;;;;;;7.00;4.80;;;;;;;32.29;37.66;99001.88;104888;1271;73299;-24
2022/06/29 08:58:24;;;;;;;5.00;4.50;;;;;;;32.25;40.24;99003.75;104838;1272;62284;-24
2022/06/29 09:00:52;;;;;;;4.60;4.10;;;;;;;32.27;38.83;99005.31;104873;1271;61909;-23
2022/06/29 09:03:21;;;;;;;5.70;4.50;;;;;;;32.41;38.39;99006.63;104817;1271;75817;-24
2022/06/29 09:05:56;;;;;;;5.00;3.90;;;;;;;32.53;38.33;99008.06;104673;1271;76087;-24
2022/06/29 09:08:23;;;;;;;5.40;3.70;;;;;;;32.58;36.47;99007.48;104861;1271;74786;-24
2022/06/29 09:10:52;;;;;;;5.20;4.00;;;;;;;32.50;37.77;99011.95;105134;1271;61153;-24
2022/06/29 09:13:23;;;;;;;4.10;3.80;;;;;;;32.51;38.91;99017.88;105137;1271;61138;-24
2022/06/29 09:15:58;;;;;;;5.50;4.20;;;;;;;32.93;37.73;99013.27;104786;1271;74485;-24
2022/06/29 09:18:30;;;;;;;5.00;4.50;;;;;;;33.58;36.80;99013.56;105003;1271;76949;-23
2022/06/29 09:21:02;;;;;;;;;;;;;;;34.10;35.02;99017.66;104921;1271;74412;-24
2022/06/29 09:23:30;;;;;;;5.10;4.70;;;;;;;34.42;33.57;99015.52;105132;1270;61964;-24
2022/06/29 09:25:58;;;;;;;5.70;4.50;;;;;;;34.81;33.95;99015.09;105140;1271;61107;-24
2022/06/29 09:28:33;;;;;;;5.30;4.50;;;;;;;35.01;33.16;99016.52;105145;1271;75597;-24
2022/06/29 09:31:01;;;;;;;7.00;5.10;;;;;;;35.18;33.02;99017.02;105098;1271;76144;-24
2022/06/29 09:33:32;;;;;;;6.00;5.40;;;;;;;35.32;32.74;99015.69;105096;1274;74700;-24
2022/06/29 09:36:07;;;;;;;5.00;4.50;;;;;;;35.30;33.65;99017.60;105141;1271;61107;-24
2022/06/29 09:38:37;;;;;;;5.10;4.70;;;;;;;35.37;33.48;99017.31;105103;1271;61140;-23
2022/06/29 09:41:09;;;;;;;5.60;4.40;;;;;;;35.53;31.73;99011.98;105033;1271;74618;-24
2022/06/29 09:43:41;;;;;;;5.20;4.80;;;;;;;35.29;31.88;99010.97;104801;1272;75876;-24
2022/06/29 09:46:13;;;;;;;5.60;4.40;;;;;;;35.04;32.31;99015.29;104660;1274;71653;-24
2022/06/29 09:48:43;;;;;;;4.80;4.00;;;;;;;34.94;31.77;99010.17;104997;1272;62204;-24
2022/06/29 09:51:30;;;;;;;5.00;4.00;;;;;;;35.15;31.81;99004.17;104678;1274;62142;-24
2022/06/29 09:54:03;;;;;;;4.50;3.90;;;;;;;35.33;32.64;99004.48;104947;1271;74927;-24
2022/06/29 09:56:31;;;;;;;6.80;4.00;;;;;;;35.46;31.85;99003.83;104892;1271;75099;-24
2022/06/29 09:58:59;;;;;;;6.00;4.20;;;;;;;35.65;31.05;99001.52;104946;1271;74212;-24
2022/06/29 10:04:14;;;;;;;4.30;3.90;;;;;;;35.93;30.14;98991.50;104835;1271;347678;-24
2022/06/29 10:06:43;;;;;;;4.10;3.80;;;;;;;35.72;31.00;98989.67;104818;1271;74491;-24
2022/06/29 10:09:11;;;;;;;4.40;4.10;;;;;;;35.50;30.42;98991.11;105170;1271;75918;-24
2022/06/29 10:15:05;;;;;;;6.30;3.80;;;;;;;35.49;29.81;98991.61;105170;1271;62235;-24
2022/06/29 10:18:04;;;;;;;77.20;8.10;;;;;;;36.02;29.65;98988.62;104771;1274;61215;-24
2022/06/29 10:20:35;;;;;;;4.70;4.00;;;;;;;36.30;28.58;98988.91;104523;1274;74078;-24
2022/06/29 10:23:02;;;;;;;4.30;3.90;;;;;;;36.57;28.33;98977.48;104777;1274;75975;-24
2022/06/29 10:25:30;;;;;;;4.40;4.00;;;;;;;36.73;27.88;98974.48;104751;1272;74580;-24
2022/06/29 10:28:18;;;;;;;4.20;3.80;;;;;;;36.70;26.93;98974.61;104959;1271;62074;-24
2022/06/29 10:30:46;;;;;;;9.40;3.50;;;;;;;37.20;27.75;98970.13;104896;1271;61150;-24
2022/06/29 10:33:30;;;;;;;4.10;3.80;;;;;;;37.29;27.62;98969.17;104753;1274;74963;-25
2022/06/29 10:38:54;;;;;;;3.90;3.60;;;;;;;37.73;26.84;98961.19;104882;1271;74268;-25
2022/06/29 10:44:08;;;;;;;6.40;3.50;;;;;;;37.96;26.58;98959.95;105135;1272;61945;-24
2022/06/29 10:47:20;;;;;;;7.90;3.70;;;;;;;38.07;26.02;98959.98;105174;1271;74394;-24
2022/06/29 10:50:20;;;;;;;4.40;4.00;;;;;;;37.83;25.57;98956.23;104772;1274;76158;-25
2022/06/29 10:52:48;;;;;;;4.00;3.60;;;;;;;37.34;26.20;98952.57;105017;1274;74508;-25
2022/06/29 10:55:16;;;;;;;3.90;3.60;;;;;;;37.35;26.73;98948.73;104818;1271;61145;-24
2022/06/29 10:57:45;;;;;;;4.20;3.80;;;;;;;36.96;26.36;98944.15;105269;1271;61552;-25
2022/06/29 11:00:17;;;;;;;6.00;4.40;;;;;;;36.93;26.56;98940.96;104882;1272;75643;-25
2022/06/29 11:02:44;;;;;;;4.10;3.80;;;;;;;36.54;26.40;98943.35;104738;1272;75953;-25
2022/06/29 11:05:11;;;;;;;4.00;3.60;;;;;;;36.88;27.67;98939.75;104971;1270;73242;-25
2022/06/29 11:13:23;;;;;;;6.20;3.90;;;;;;;36.79;27.07;98922.73;105138;1272;74556;-25
2022/06/29 11:15:53;;;;;;;4.40;3.80;;;;;;;36.53;26.38;98916.44;104839;1271;76133;-25
2022/06/29 11:18:31;;;;;;;3.70;3.40;;;;;;;36.21;27.61;98917.04;104991;1272;74661;-25
2022/06/29 11:21:02;;;;;;;3.40;3.10;;;;;;;36.78;27.54;98915.81;104888;1272;61832;-25
2022/06/29 11:23:34;;;;;;;4.70;3.20;;;;;;;37.48;27.03;98917.20;104690;1271;61054;-25
2022/06/29 11:26:03;;;;;;;4.60;3.60;;;;;;;37.83;25.49;98915.27;104886;1271;75872;-25
2022/06/29 11:28:32;;;;;;;5.80;3.80;;;;;;;37.64;26.31;98910.39;104761;1271;76298;-25
2022/06/29 11:33:12;;;;;;;5.80;3.90;;;;;;;36.41;27.60;98909.41;101537;1309;599971;-23
2022/06/29 11:35:42;;;;;;;5.60;3.70;;;;;;;36.18;27.07;98906.34;104290;1283;62092;-24
2022/06/29 11:38:11;;;;;;;3.90;3.60;;;;;;;36.16;28.38;98906.64;103948;1283;61492;-23
2022/06/29 11:40:41;;;;;;;5.20;3.40;;;;;;;36.01;28.57;98902.98;103950;1283;74328;-24
2022/06/29 11:43:10;;;;;;;5.60;3.50;;;;;;;36.15;28.67;98903.60;103975;1283;76887;-23
2022/06/29 11:45:47;;;;;;;4.60;4.20;;;;;;;35.60;28.11;98904.02;104271;1283;75342;-24
2022/06/29 11:48:21;;;;;;;4.90;3.80;;;;;;;35.41;27.78;98898.34;104051;1283;61189;-24
2022/06/29 11:50:56;;;;;;;6.40;3.70;;;;;;;35.51;27.46;98900.42;104086;1283;62041;-24
2022/06/29 11:53:47;;;;;;;6.00;3.60;;;;;;;35.39;28.41;98898.65;103957;1283;72252;-24
2022/06/29 11:56:25;;;;;;;3.70;3.40;;;;;;;35.62;27.73;98898.21;105060;1273;75346;-23
2022/06/29 11:58:56;;;;;;;5.10;3.40;;;;;;;35.86;28.02;98895.41;104968;1273;70675;-23
2022/06/29 12:01:24;;;;;;;5.40;3.50;;;;;;;36.19;28.61;98889.92;105062;1272;61207;-24
2022/06/29 12:03:52;;;;;;;5.80;3.60;;;;;;;36.34;29.22;98891.60;104789;1271;61125;-23